sensor_id;sensor_type;location;lat;lon;timestamp;pressure;altitude;pressure_sealevel;temperature
76381;BMP280;65202;52.520;10.528;2024-03-23T00:54:31;100306.22;;;9.15
76381;BMP280;65202;52.520;10.528;2024-03-23T00:56:58;100298.78;;;9.17
76381;BMP280;65202;52.520;10.528;2024-03-23T00:59:24;100292.72;;;9.31
76381;BMP280;65202;52.520;10.528;2024-03-23T01:01:54;100284.34;;;9.29
76381;BMP280;65202;52.520;10.528;2024-03-23T01:04:21;100289.72;;;9.38
76381;BMP280;65202;52.520;10.528;2024-03-23T01:06:48;100277.94;;;9.35
76381;BMP280;65202;52.520;10.528;2024-03-23T01:09:14;100269.84;;;9.40
76381;BMP280;65202;52.520;10.528;2024-03-23T01:11:41;100273.13;;;9.39
76381;BMP280;65202;52.520;10.528;2024-03-23T01:14:07;100267.38;;;9.22
76381;BMP280;65202;52.520;10.528;2024-03-23T01:16:34;100260.91;;;9.27
76381;BMP280;65202;52.520;10.528;2024-03-23T01:19:01;100258.97;;;9.20
76381;BMP280;65202;52.520;10.528;2024-03-23T01:21:27;100255.81;;;9.24
76381;BMP280;65202;52.520;10.528;2024-03-23T01:23:53;100272.38;;;9.22
76381;BMP280;65202;52.520;10.528;2024-03-23T01:26:20;100258.13;;;9.39
76381;BMP280;65202;52.520;10.528;2024-03-23T01:28:47;100261.97;;;9.32
76381;BMP280;65202;52.520;10.528;2024-03-23T01:31:13;100260.84;;;9.05
76381;BMP280;65202;52.520;10.528;2024-03-23T01:33:39;100251.63;;;9.04
76381;BMP280;65202;52.520;10.528;2024-03-23T01:36:06;100248.28;;;9.22
76381;BMP280;65202;52.520;10.528;2024-03-23T01:38:33;100250.53;;;8.97
76381;BMP280;65202;52.520;10.528;2024-03-23T01:40:59;100238.91;;;9.18
76381;BMP280;65202;52.520;10.528;2024-03-23T01:43:26;100237.56;;;9.25
76381;BMP280;65202;52.520;10.528;2024-03-23T01:45:53;100236.97;;;9.11
76381;BMP280;65202;52.520;10.528;2024-03-23T01:48:20;100232.16;;;9.16
76381;BMP280;65202;52.520;10.528;2024-03-23T01:50:47;100230.31;;;9.12
76381;BMP280;65202;52.520;10.528;2024-03-23T01:53:14;100236.28;;;8.95
76381;BMP280;65202;52.520;10.528;2024-03-23T01:55:43;100216.69;;;9.04
76381;BMP280;65202;52.520;10.528;2024-03-23T01:58:10;100224.34;;;9.08
76381;BMP280;65202;52.520;10.528;2024-03-23T02:00:37;100225.88;;;9.05
76381;BMP280;65202;52.520;10.528;2024-03-23T02:03:22;100211.38;;;9.17
76381;BMP280;65202;52.520;10.528;2024-03-23T02:05:53;100208.25;;;9.02
76381;BMP280;65202;52.520;10.528;2024-03-23T02:08:22;100204.94;;;8.82
76381;BMP280;65202;52.520;10.528;2024-03-23T02:10:50;100203.25;;;9.02
76381;BMP280;65202;52.520;10.528;2024-03-23T02:13:20;100200.84;;;8.84
76381;BMP280;65202;52.520;10.528;2024-03-23T02:15:47;100203.22;;;8.81
76381;BMP280;65202;52.520;10.528;2024-03-23T02:18:14;100194.63;;;8.94
76381;BMP280;65202;52.520;10.528;2024-03-23T02:20:40;100194.63;;;8.94
76381;BMP280;65202;52.520;10.528;2024-03-23T02:23:17;100192.94;;;8.74
76381;BMP280;65202;52.520;10.528;2024-03-23T02:25:46;100185.66;;;8.78
76381;BMP280;65202;52.520;10.528;2024-03-23T02:28:13;100185.78;;;9.02
76381;BMP280;65202;52.520;10.528;2024-03-23T02:30:40;100189.56;;;8.92
76381;BMP280;65202;52.520;10.528;2024-03-23T02:33:06;100185.47;;;8.94
76381;BMP280;65202;52.520;10.528;2024-03-23T02:35:33;100186.19;;;8.92
76381;BMP280;65202;52.520;10.528;2024-03-23T02:38:00;100180.72;;;8.80
76381;BMP280;65202;52.520;10.528;2024-03-23T02:40:27;100170.91;;;8.84
76381;BMP280;65202;52.520;10.528;2024-03-23T02:42:54;100172.19;;;8.75
76381;BMP280;65202;52.520;10.528;2024-03-23T02:45:21;100156.22;;;8.72
76381;BMP280;65202;52.520;10.528;2024-03-23T02:47:48;100151.25;;;8.92
76381;BMP280;65202;52.520;10.528;2024-03-23T02:50:19;100151.84;;;8.66
76381;BMP280;65202;52.520;10.528;2024-03-23T02:52:46;100146.56;;;8.79
76381;BMP280;65202;52.520;10.528;2024-03-23T02:55:14;100148.00;;;8.74
76381;BMP280;65202;52.520;10.528;2024-03-23T02:57:41;100137.13;;;8.72
76381;BMP280;65202;52.520;10.528;2024-03-23T03:00:08;100134.69;;;8.74
76381;BMP280;65202;52.520;10.528;2024-03-23T03:02:35;100135.94;;;8.64
76381;BMP280;65202;52.520;10.528;2024-03-23T03:05:01;100127.13;;;8.53
76381;BMP280;65202;52.520;10.528;2024-03-23T03:07:28;100131.63;;;8.60
76381;BMP280;65202;52.520;10.528;2024-03-23T03:09:55;100129.56;;;8.71
76381;BMP280;65202;52.520;10.528;2024-03-23T03:12:21;100125.91;;;8.63
76381;BMP280;65202;52.520;10.528;2024-03-23T03:14:48;100122.31;;;8.56
76381;BMP280;65202;52.520;10.528;2024-03-23T03:17:15;100126.91;;;8.47
76381;BMP280;65202;52.520;10.528;2024-03-23T03:19:41;100122.31;;;8.56
76381;BMP280;65202;52.520;10.528;2024-03-23T03:22:08;100125.25;;;8.48
76381;BMP280;65202;52.520;10.528;2024-03-23T03:24:34;100126.72;;;8.63
76381;BMP280;65202;52.520;10.528;2024-03-23T03:27:01;100122.25;;;8.55
76381;BMP280;65202;52.520;10.528;2024-03-23T03:29:29;100120.28;;;8.68
76381;BMP280;65202;52.520;10.528;2024-03-23T03:32:04;100116.44;;;8.56
76381;BMP280;65202;52.520;10.528;2024-03-23T03:34:31;100119.91;;;8.59
76381;BMP280;65202;52.520;10.528;2024-03-23T03:36:58;100104.50;;;8.49
76381;BMP280;65202;52.520;10.528;2024-03-23T03:39:26;100104.91;;;8.39
76381;BMP280;65202;52.520;10.528;2024-03-23T03:41:52;100117.31;;;8.56
76381;BMP280;65202;52.520;10.528;2024-03-23T03:44:19;100118.09;;;8.55
76381;BMP280;65202;52.520;10.528;2024-03-23T03:46:45;100118.41;;;8.63
76381;BMP280;65202;52.520;10.528;2024-03-23T03:49:12;100116.13;;;8.48
76381;BMP280;65202;52.520;10.528;2024-03-23T03:51:38;100107.72;;;8.65
76381;BMP280;65202;52.520;10.528;2024-03-23T03:54:05;100093.03;;;8.52
76381;BMP280;65202;52.520;10.528;2024-03-23T03:56:32;100095.03;;;8.61
76381;BMP280;65202;52.520;10.528;2024-03-23T03:58:59;100099.16;;;8.40
76381;BMP280;65202;52.520;10.528;2024-03-23T04:01:25;100112.06;;;8.50
76381;BMP280;65202;52.520;10.528;2024-03-23T04:03:52;100107.63;;;8.43
76381;BMP280;65202;52.520;10.528;2024-03-23T04:06:19;100106.41;;;8.35
76381;BMP280;65202;52.520;10.528;2024-03-23T04:08:46;100119.56;;;8.31
76381;BMP280;65202;52.520;10.528;2024-03-23T04:11:12;100112.59;;;8.24
76381;BMP280;65202;52.520;10.528;2024-03-23T04:13:39;100098.56;;;8.26
76381;BMP280;65202;52.520;10.528;2024-03-23T04:16:07;100102.69;;;8.26
76381;BMP280;65202;52.520;10.528;2024-03-23T04:18:35;100102.09;;;8.31
76381;BMP280;65202;52.520;10.528;2024-03-23T04:21:02;100102.53;;;8.42
76381;BMP280;65202;52.520;10.528;2024-03-23T04:23:29;100105.91;;;8.42
76381;BMP280;65202;52.520;10.528;2024-03-23T04:25:55;100085.63;;;8.35
76381;BMP280;65202;52.520;10.528;2024-03-23T04:28:22;100088.69;;;8.29
76381;BMP280;65202;52.520;10.528;2024-03-23T04:30:48;100080.69;;;8.36
76381;BMP280;65202;52.520;10.528;2024-03-23T04:33:15;100088.50;;;8.06
76381;BMP280;65202;52.520;10.528;2024-03-23T04:35:42;100095.97;;;8.06
76381;BMP280;65202;52.520;10.528;2024-03-23T04:38:08;100097.19;;;7.97
76381;BMP280;65202;52.520;10.528;2024-03-23T04:40:35;100080.94;;;8.05
76381;BMP280;65202;52.520;10.528;2024-03-23T04:43:01;100082.41;;;8.00
76381;BMP280;65202;52.520;10.528;2024-03-23T04:45:28;100084.66;;;7.95
76381;BMP280;65202;52.520;10.528;2024-03-23T04:47:55;100086.09;;;7.90
76381;BMP280;65202;52.520;10.528;2024-03-23T04:50:21;100090.09;;;7.87
76381;BMP280;65202;52.520;10.528;2024-03-23T04:52:48;100084.41;;;7.89
76381;BMP280;65202;52.520;10.528;2024-03-23T04:55:14;100094.59;;;7.94
76381;BMP280;65202;52.520;10.528;2024-03-23T04:57:41;100074.03;;;7.99
76381;BMP280;65202;52.520;10.528;2024-03-23T05:00:07;100077.25;;;7.97
76381;BMP280;65202;52.520;10.528;2024-03-23T05:02:43;100065.00;;;8.01
76381;BMP280;65202;52.520;10.528;2024-03-23T05:05:12;100055.88;;;8.02
76381;BMP280;65202;52.520;10.528;2024-03-23T05:07:38;100054.38;;;8.05
76381;BMP280;65202;52.520;10.528;2024-03-23T05:10:05;100058.53;;;7.86
76381;BMP280;65202;52.520;10.528;2024-03-23T05:12:37;100069.00;;;7.79
76381;BMP280;65202;52.520;10.528;2024-03-23T05:15:05;100051.44;;;7.95
76381;BMP280;65202;52.520;10.528;2024-03-23T05:17:32;100055.75;;;7.99
76381;BMP280;65202;52.520;10.528;2024-03-23T05:20:00;100053.94;;;7.95
76381;BMP280;65202;52.520;10.528;2024-03-23T05:22:26;100048.47;;;7.84
76381;BMP280;65202;52.520;10.528;2024-03-23T05:24:53;100045.78;;;7.99
76381;BMP280;65202;52.520;10.528;2024-03-23T05:27:20;100053.09;;;7.77
76381;BMP280;65202;52.520;10.528;2024-03-23T05:29:46;100050.88;;;7.83
76381;BMP280;65202;52.520;10.528;2024-03-23T05:32:13;100053.38;;;7.64
76381;BMP280;65202;52.520;10.528;2024-03-23T05:34:40;100057.47;;;7.45
76381;BMP280;65202;52.520;10.528;2024-03-23T05:37:06;100054.50;;;7.53
76381;BMP280;65202;52.520;10.528;2024-03-23T05:39:33;100052.38;;;7.79
76381;BMP280;65202;52.520;10.528;2024-03-23T05:41:59;100049.84;;;7.78
76381;BMP280;65202;52.520;10.528;2024-03-23T05:44:28;100040.25;;;7.87
76381;BMP280;65202;52.520;10.528;2024-03-23T05:46:55;100043.69;;;7.89
76381;BMP280;65202;52.520;10.528;2024-03-23T05:49:21;100042.31;;;7.76
76381;BMP280;65202;52.520;10.528;2024-03-23T05:51:48;100050.31;;;7.88
76381;BMP280;65202;52.520;10.528;2024-03-23T05:54:14;100053.97;;;7.77
76381;BMP280;65202;52.520;10.528;2024-03-23T05:56:41;100054.31;;;7.85
76381;BMP280;65202;52.520;10.528;2024-03-23T05:59:08;100048.00;;;7.93
76381;BMP280;65202;52.520;10.528;2024-03-23T06:01:35;100055.22;;;7.87
76381;BMP280;65202;52.520;10.528;2024-03-23T06:04:02;100060.19;;;7.68
76381;BMP280;65202;52.520;10.528;2024-03-23T06:06:28;100063.25;;;7.62
76381;BMP280;65202;52.520;10.528;2024-03-23T06:08:56;100055.41;;;7.36
76381;BMP280;65202;52.520;10.528;2024-03-23T06:11:23;100052.13;;;7.37
76381;BMP280;65202;52.520;10.528;2024-03-23T06:13:49;100047.59;;;7.65
76381;BMP280;65202;52.520;10.528;2024-03-23T06:16:16;100048.03;;;7.56
76381;BMP280;65202;52.520;10.528;2024-03-23T06:18:45;100044.06;;;7.60
76381;BMP280;65202;52.520;10.528;2024-03-23T06:21:15;100040.00;;;7.62
76381;BMP280;65202;52.520;10.528;2024-03-23T06:23:42;100041.81;;;7.47
76381;BMP280;65202;52.520;10.528;2024-03-23T06:26:08;100033.16;;;7.77
76381;BMP280;65202;52.520;10.528;2024-03-23T06:28:35;100030.25;;;7.49
76381;BMP280;65202;52.520;10.528;2024-03-23T06:31:02;100021.75;;;7.82
76381;BMP280;65202;52.520;10.528;2024-03-23T06:33:28;100018.22;;;7.96
76381;BMP280;65202;52.520;10.528;2024-03-23T06:35:55;100009.44;;;8.04
76381;BMP280;65202;52.520;10.528;2024-03-23T06:38:21;100016.06;;;8.03
76381;BMP280;65202;52.520;10.528;2024-03-23T06:40:48;100007.94;;;8.07
76381;BMP280;65202;52.520;10.528;2024-03-23T06:43:16;100010.41;;;7.69
76381;BMP280;65202;52.520;10.528;2024-03-23T06:45:43;100014.28;;;8.01
76381;BMP280;65202;52.520;10.528;2024-03-23T06:48:10;100016.66;;;7.98
76381;BMP280;65202;52.520;10.528;2024-03-23T06:50:37;100008.31;;;8.15
76381;BMP280;65202;52.520;10.528;2024-03-23T06:53:03;100009.41;;;8.21
76381;BMP280;65202;52.520;10.528;2024-03-23T06:55:31;100009.81;;;8.13
76381;BMP280;65202;52.520;10.528;2024-03-23T06:57:58;100007.22;;;8.10
76381;BMP280;65202;52.520;10.528;2024-03-23T07:00:25;100018.03;;;8.10
76381;BMP280;65202;52.520;10.528;2024-03-23T07:02:52;100026.22;;;8.08
76381;BMP280;65202;52.520;10.528;2024-03-23T07:05:18;100030.78;;;8.16
76381;BMP280;65202;52.520;10.528;2024-03-23T07:07:45;100027.63;;;8.20
76381;BMP280;65202;52.520;10.528;2024-03-23T07:10:12;100019.09;;;8.15
76381;BMP280;65202;52.520;10.528;2024-03-23T07:12:39;100020.22;;;8.21
76381;BMP280;65202;52.520;10.528;2024-03-23T07:15:06;100020.94;;;8.19
76381;BMP280;65202;52.520;10.528;2024-03-23T07:17:34;100025.41;;;8.26
76381;BMP280;65202;52.520;10.528;2024-03-23T07:20:02;100027.44;;;8.15
76381;BMP280;65202;52.520;10.528;2024-03-23T07:22:32;100030.13;;;8.20
76381;BMP280;65202;52.520;10.528;2024-03-23T07:25:00;100025.88;;;8.17
76381;BMP280;65202;52.520;10.528;2024-03-23T07:27:27;100028.41;;;8.19
76381;BMP280;65202;52.520;10.528;2024-03-23T07:29:53;100024.09;;;8.15
76381;BMP280;65202;52.520;10.528;2024-03-23T07:32:21;100028.59;;;8.05
76381;BMP280;65202;52.520;10.528;2024-03-23T07:34:47;100027.56;;;8.00
76381;BMP280;65202;52.520;10.528;2024-03-23T07:37:14;100030.28;;;8.06
76381;BMP280;65202;52.520;10.528;2024-03-23T07:39:41;100020.25;;;8.04
76381;BMP280;65202;52.520;10.528;2024-03-23T07:42:07;100029.97;;;7.98
76381;BMP280;65202;52.520;10.528;2024-03-23T07:44:34;100023.84;;;8.11
76381;BMP280;65202;52.520;10.528;2024-03-23T07:47:00;100022.44;;;8.15
76381;BMP280;65202;52.520;10.528;2024-03-23T07:49:27;100024.53;;;8.07
76381;BMP280;65202;52.520;10.528;2024-03-23T07:51:54;100034.63;;;8.10
76381;BMP280;65202;52.520;10.528;2024-03-23T07:54:21;100030.16;;;8.03
76381;BMP280;65202;52.520;10.528;2024-03-23T07:56:47;100030.22;;;8.04
76381;BMP280;65202;52.520;10.528;2024-03-23T07:59:14;100028.00;;;8.10
76381;BMP280;65202;52.520;10.528;2024-03-23T08:01:40;100028.59;;;8.05
76381;BMP280;65202;52.520;10.528;2024-03-23T08:04:07;100021.06;;;8.22
76381;BMP280;65202;52.520;10.528;2024-03-23T08:06:33;100020.94;;;8.19
76381;BMP280;65202;52.520;10.528;2024-03-23T08:09:00;100031.53;;;8.34
76381;BMP280;65202;52.520;10.528;2024-03-23T08:11:28;100030.50;;;8.29
76381;BMP280;65202;52.520;10.528;2024-03-23T08:13:56;100024.84;;;8.33
76381;BMP280;65202;52.520;10.528;2024-03-23T08:16:23;100026.25;;;8.26
76381;BMP280;65202;52.520;10.528;2024-03-23T08:18:51;100018.38;;;8.17
76381;BMP280;65202;52.520;10.528;2024-03-23T08:21:18;100017.81;;;8.43
76381;BMP280;65202;52.520;10.528;2024-03-23T08:23:45;100023.06;;;8.70
76381;BMP280;65202;52.520;10.528;2024-03-23T08:26:14;100019.31;;;8.80
76381;BMP280;65202;52.520;10.528;2024-03-23T08:28:42;100031.41;;;8.70
76381;BMP280;65202;52.520;10.528;2024-03-23T08:31:12;100033.38;;;8.58
76381;BMP280;65202;52.520;10.528;2024-03-23T08:33:39;100030.66;;;8.52
76381;BMP280;65202;52.520;10.528;2024-03-23T08:36:07;100023.47;;;8.80
76381;BMP280;65202;52.520;10.528;2024-03-23T08:38:35;100016.38;;;8.69
76381;BMP280;65202;52.520;10.528;2024-03-23T08:41:04;100022.31;;;8.52
76381;BMP280;65202;52.520;10.528;2024-03-23T08:43:32;100022.88;;;8.65
76381;BMP280;65202;52.520;10.528;2024-03-23T08:46:04;100017.78;;;8.62
76381;BMP280;65202;52.520;10.528;2024-03-23T08:48:31;100008.75;;;8.66
76381;BMP280;65202;52.520;10.528;2024-03-23T08:51:02;100005.75;;;8.74
76381;BMP280;65202;52.520;10.528;2024-03-23T08:53:30;100026.00;;;8.60
76381;BMP280;65202;52.520;10.528;2024-03-23T08:55:57;100011.78;;;8.79
76381;BMP280;65202;52.520;10.528;2024-03-23T08:58:25;100015.22;;;8.81
76381;BMP280;65202;52.520;10.528;2024-03-23T09:00:54;100009.34;;;9.01
76381;BMP280;65202;52.520;10.528;2024-03-23T09:03:23;100009.94;;;8.95
76381;BMP280;65202;52.520;10.528;2024-03-23T09:05:51;100013.66;;;9.05
76381;BMP280;65202;52.520;10.528;2024-03-23T09:08:18;100008.31;;;9.39
76381;BMP280;65202;52.520;10.528;2024-03-23T09:10:47;100020.75;;;9.38
76381;BMP280;65202;52.520;10.528;2024-03-23T09:13:14;100019.00;;;9.57
76381;BMP280;65202;52.520;10.528;2024-03-23T09:15:50;100019.00;;;9.36
76381;BMP280;65202;52.520;10.528;2024-03-23T09:18:18;100016.09;;;9.47
76381;BMP280;65202;52.520;10.528;2024-03-23T09:20:44;100019.56;;;9.72
76381;BMP280;65202;52.520;10.528;2024-03-23T09:23:11;100016.34;;;9.98
76381;BMP280;65202;52.520;10.528;2024-03-23T09:25:38;100015.31;;;10.16
76381;BMP280;65202;52.520;10.528;2024-03-23T09:28:06;100019.41;;;10.14
76381;BMP280;65202;52.520;10.528;2024-03-23T09:30:35;100017.59;;;10.59
76381;BMP280;65202;52.520;10.528;2024-03-23T09:33:11;100011.97;;;10.41
76381;BMP280;65202;52.520;10.528;2024-03-23T09:35:39;100014.66;;;10.22
76381;BMP280;65202;52.520;10.528;2024-03-23T09:38:07;100016.47;;;10.01
76381;BMP280;65202;52.520;10.528;2024-03-23T09:40:40;100021.03;;;9.67
76381;BMP280;65202;52.520;10.528;2024-03-23T09:43:09;100014.19;;;9.63
76381;BMP280;65202;52.520;10.528;2024-03-23T09:45:38;100016.13;;;9.70
76381;BMP280;65202;52.520;10.528;2024-03-23T09:48:10;100013.72;;;9.73
76381;BMP280;65202;52.520;10.528;2024-03-23T09:50:44;100019.09;;;9.60
76381;BMP280;65202;52.520;10.528;2024-03-23T09:53:12;100012.66;;;9.67
76381;BMP280;65202;52.520;10.528;2024-03-23T09:55:41;100016.69;;;9.85
76381;BMP280;65202;52.520;10.528;2024-03-23T09:58:12;100013.44;;;9.88
76381;BMP280;65202;52.520;10.528;2024-03-23T10:00:40;100010.28;;;9.93
76381;BMP280;65202;52.520;10.528;2024-03-23T10:03:06;100008.50;;;9.89
76381;BMP280;65202;52.520;10.528;2024-03-23T10:05:33;100011.78;;;9.88
76381;BMP280;65202;52.520;10.528;2024-03-23T10:08:23;100007.75;;;9.92
76381;BMP280;65202;52.520;10.528;2024-03-23T10:10:49;100008.03;;;9.99
76381;BMP280;65202;52.520;10.528;2024-03-23T10:13:26;100005.44;;;9.96
76381;BMP280;65202;52.520;10.528;2024-03-23T10:15:56;100001.22;;;9.95
76381;BMP280;65202;52.520;10.528;2024-03-23T10:18:24;99991.44;;;11.57
76381;BMP280;65202;52.520;10.528;2024-03-23T10:23:36;99974.47;;;12.75
76381;BMP280;65202;52.520;10.528;2024-03-23T10:26:19;99964.59;;;12.47
76381;BMP280;65202;52.520;10.528;2024-03-23T10:28:59;99970.84;;;12.29
76381;BMP280;65202;52.520;10.528;2024-03-23T10:31:34;99965.69;;;12.24
76381;BMP280;65202;52.520;10.528;2024-03-23T10:34:03;99968.84;;;12.85
76381;BMP280;65202;52.520;10.528;2024-03-23T10:36:30;99980.16;;;11.71
76381;BMP280;65202;52.520;10.528;2024-03-23T10:38:57;99980.41;;;11.51
76381;BMP280;65202;52.520;10.528;2024-03-23T10:41:27;99984.31;;;11.14
76381;BMP280;65202;52.520;10.528;2024-03-23T10:43:55;99990.38;;;10.94
76381;BMP280;65202;52.520;10.528;2024-03-23T10:46:24;99991.22;;;10.43
76381;BMP280;65202;52.520;10.528;2024-03-23T10:48:51;99986.16;;;10.17
76381;BMP280;65202;52.520;10.528;2024-03-23T10:51:18;99985.84;;;9.85
76381;BMP280;65202;52.520;10.528;2024-03-23T10:53:46;99985.09;;;9.87
76381;BMP280;65202;52.520;10.528;2024-03-23T10:56:14;99985.81;;;9.61
76381;BMP280;65202;52.520;10.528;2024-03-23T10:58:45;99986.66;;;9.62
76381;BMP280;65202;52.520;10.528;2024-03-23T11:01:14;99986.16;;;9.70
76381;BMP280;65202;52.520;10.528;2024-03-23T11:03:46;99983.50;;;10.62
76381;BMP280;65202;52.520;10.528;2024-03-23T11:06:38;99986.84;;;10.63
76381;BMP280;65202;52.520;10.528;2024-03-23T11:14:58;99999.56;;;10.19
76381;BMP280;65202;52.520;10.528;2024-03-23T11:17:30;99997.91;;;10.19
76381;BMP280;65202;52.520;10.528;2024-03-23T11:20:03;100004.69;;;10.47
76381;BMP280;65202;52.520;10.528;2024-03-23T11:25:25;99969.38;;;12.06
76381;BMP280;65202;52.520;10.528;2024-03-23T11:27:57;99955.28;;;12.43
76381;BMP280;65202;52.520;10.528;2024-03-23T11:30:35;99965.16;;;12.71
76381;BMP280;65202;52.520;10.528;2024-03-23T11:33:02;99955.44;;;13.21
76381;BMP280;65202;52.520;10.528;2024-03-23T11:35:29;99948.75;;;13.20
76381;BMP280;65202;52.520;10.528;2024-03-23T11:40:41;100006.97;;;11.74
76381;BMP280;65202;52.520;10.528;2024-03-23T11:43:12;100028.06;;;10.73
76381;BMP280;65202;52.520;10.528;2024-03-23T11:45:44;100042.56;;;10.32
76381;BMP280;65202;52.520;10.528;2024-03-23T11:48:22;100053.25;;;9.60
76381;BMP280;65202;52.520;10.528;2024-03-23T11:50:51;100050.47;;;9.52
76381;BMP280;65202;52.520;10.528;2024-03-23T11:53:24;100060.28;;;9.06
76381;BMP280;65202;52.520;10.528;2024-03-23T11:55:55;100074.63;;;9.10
76381;BMP280;65202;52.520;10.528;2024-03-23T11:58:24;100082.88;;;8.68
76381;BMP280;65202;52.520;10.528;2024-03-23T12:01:02;100060.41;;;8.68
76381;BMP280;65202;52.520;10.528;2024-03-23T12:03:31;100042.84;;;8.65
76381;BMP280;65202;52.520;10.528;2024-03-23T12:06:00;100041.88;;;8.22
76381;BMP280;65202;52.520;10.528;2024-03-23T12:11:09;100014.88;;;8.94
76381;BMP280;65202;52.520;10.528;2024-03-23T12:13:44;100012.28;;;9.35
76381;BMP280;65202;52.520;10.528;2024-03-23T12:16:17;100013.84;;;9.31
76381;BMP280;65202;52.520;10.528;2024-03-23T12:18:49;100016.38;;;9.76
76381;BMP280;65202;52.520;10.528;2024-03-23T12:21:19;100019.38;;;10.13
76381;BMP280;65202;52.520;10.528;2024-03-23T12:23:48;100016.09;;;10.39
76381;BMP280;65202;52.520;10.528;2024-03-23T12:26:16;100020.19;;;10.37
76381;BMP280;65202;52.520;10.528;2024-03-23T12:28:44;100024.97;;;10.31
76381;BMP280;65202;52.520;10.528;2024-03-23T12:31:10;100026.50;;;10.03
76381;BMP280;65202;52.520;10.528;2024-03-23T12:33:37;100048.69;;;9.72
76381;BMP280;65202;52.520;10.528;2024-03-23T12:36:04;100035.47;;;9.52
76381;BMP280;65202;52.520;10.528;2024-03-23T12:38:30;100037.16;;;9.10
76381;BMP280;65202;52.520;10.528;2024-03-23T12:40:57;100039.94;;;8.97
76381;BMP280;65202;52.520;10.528;2024-03-23T12:43:23;100041.16;;;8.45
76381;BMP280;65202;52.520;10.528;2024-03-23T12:45:50;100038.00;;;8.49
76381;BMP280;65202;52.520;10.528;2024-03-23T12:48:16;100018.00;;;8.88
76381;BMP280;65202;52.520;10.528;2024-03-23T12:50:43;100016.13;;;8.63
76381;BMP280;65202;52.520;10.528;2024-03-23T12:53:09;100018.91;;;8.70
76381;BMP280;65202;52.520;10.528;2024-03-23T12:55:36;100008.28;;;9.16
76381;BMP280;65202;52.520;10.528;2024-03-23T12:58:03;99997.09;;;9.29
76381;BMP280;65202;52.520;10.528;2024-03-23T13:00:30;100003.00;;;9.09
76381;BMP280;65202;52.520;10.528;2024-03-23T13:02:57;100004.41;;;9.91
76381;BMP280;65202;52.520;10.528;2024-03-23T13:05:24;100005.63;;;10.02
76381;BMP280;65202;52.520;10.528;2024-03-23T13:07:50;100014.28;;;9.88
76381;BMP280;65202;52.520;10.528;2024-03-23T13:10:17;100001.91;;;9.91
76381;BMP280;65202;52.520;10.528;2024-03-23T13:12:43;100008.97;;;9.79
76381;BMP280;65202;52.520;10.528;2024-03-23T13:15:09;100014.94;;;9.61
76381;BMP280;65202;52.520;10.528;2024-03-23T13:17:36;100006.47;;;10.26
76381;BMP280;65202;52.520;10.528;2024-03-23T13:20:03;100008.63;;;11.18
76381;BMP280;65202;52.520;10.528;2024-03-23T13:22:30;99994.69;;;11.53
76381;BMP280;65202;52.520;10.528;2024-03-23T13:24:57;100004.06;;;11.59
76381;BMP280;65202;52.520;10.528;2024-03-23T13:27:24;100001.31;;;11.51
76381;BMP280;65202;52.520;10.528;2024-03-23T13:29:50;100002.66;;;11.42
76381;BMP280;65202;52.520;10.528;2024-03-23T13:32:17;99998.09;;;11.55
76381;BMP280;65202;52.520;10.528;2024-03-23T13:34:43;99997.75;;;11.17
76381;BMP280;65202;52.520;10.528;2024-03-23T13:37:10;100005.16;;;10.86
76381;BMP280;65202;52.520;10.528;2024-03-23T13:39:37;100007.44;;;10.54
76381;BMP280;65202;52.520;10.528;2024-03-23T13:42:03;100001.44;;;10.49
76381;BMP280;65202;52.520;10.528;2024-03-23T13:44:30;100010.19;;;10.37
76381;BMP280;65202;52.520;10.528;2024-03-23T13:46:56;100007.88;;;10.43
76381;BMP280;65202;52.520;10.528;2024-03-23T13:49:25;100018.19;;;10.27
76381;BMP280;65202;52.520;10.528;2024-03-23T13:51:54;100018.78;;;10.45
76381;BMP280;65202;52.520;10.528;2024-03-23T13:54:22;100010.38;;;10.43
76381;BMP280;65202;52.520;10.528;2024-03-23T13:56:49;99998.88;;;10.48
76381;BMP280;65202;52.520;10.528;2024-03-23T13:59:16;99986.34;;;10.99
76381;BMP280;65202;52.520;10.528;2024-03-23T14:01:46;99981.59;;;10.80
76381;BMP280;65202;52.520;10.528;2024-03-23T14:04:13;99987.84;;;10.94
76381;BMP280;65202;52.520;10.528;2024-03-23T14:06:39;99982.81;;;11.20
76381;BMP280;65202;52.520;10.528;2024-03-23T14:09:07;99982.19;;;10.73
76381;BMP280;65202;52.520;10.528;2024-03-23T14:11:35;99973.94;;;11.03
76381;BMP280;65202;52.520;10.528;2024-03-23T14:14:06;99976.06;;;11.18
76381;BMP280;65202;52.520;10.528;2024-03-23T14:16:33;99971.25;;;11.24
76381;BMP280;65202;52.520;10.528;2024-03-23T14:18:59;99973.56;;;11.18
76381;BMP280;65202;52.520;10.528;2024-03-23T14:21:26;99974.78;;;11.30
76381;BMP280;65202;52.520;10.528;2024-03-23T14:23:52;99975.75;;;11.63
76381;BMP280;65202;52.520;10.528;2024-03-23T14:26:21;99972.81;;;11.49
76381;BMP280;65202;52.520;10.528;2024-03-23T14:28:49;99977.69;;;11.17
76381;BMP280;65202;52.520;10.528;2024-03-23T14:31:16;99975.09;;;10.86
76381;BMP280;65202;52.520;10.528;2024-03-23T14:33:43;99971.41;;;11.02
76381;BMP280;65202;52.520;10.528;2024-03-23T14:36:13;99977.16;;;10.99
76381;BMP280;65202;52.520;10.528;2024-03-23T14:38:40;99981.50;;;10.78
76381;BMP280;65202;52.520;10.528;2024-03-23T14:41:07;99977.41;;;10.80
76381;BMP280;65202;52.520;10.528;2024-03-23T14:43:33;99978.47;;;10.88
76381;BMP280;65202;52.520;10.528;2024-03-23T14:46:14;99967.56;;;10.59
76381;BMP280;65202;52.520;10.528;2024-03-23T14:48:43;99974.16;;;10.57
76381;BMP280;65202;52.520;10.528;2024-03-23T14:51:11;99977.25;;;11.02
76381;BMP280;65202;52.520;10.528;2024-03-23T14:53:39;99963.53;;;10.90
76381;BMP280;65202;52.520;10.528;2024-03-23T14:56:08;99961.88;;;10.90
76381;BMP280;65202;52.520;10.528;2024-03-23T14:58:37;99961.19;;;10.96
76381;BMP280;65202;52.520;10.528;2024-03-23T15:01:05;99942.19;;;11.02
76381;BMP280;65202;52.520;10.528;2024-03-23T15:03:37;99942.88;;;10.97
76381;BMP280;65202;52.520;10.528;2024-03-23T15:06:06;99933.59;;;11.22
76381;BMP280;65202;52.520;10.528;2024-03-23T15:08:35;99933.38;;;10.61
76381;BMP280;65202;52.520;10.528;2024-03-23T15:11:03;99943.34;;;10.33